createdAt,value
2017-12-16T00:02:20.723Z,85.80
2017-12-16T00:04:47.841Z,85.70
2017-12-16T00:07:14.973Z,86.00
2017-12-16T00:09:42.858Z,85.80
2017-12-16T00:12:10.742Z,85.60
2017-12-16T00:14:37.889Z,85.60
2017-12-16T00:17:05.006Z,84.80
2017-12-16T00:19:32.932Z,85.50
2017-12-16T00:22:00.053Z,85.50
2017-12-16T00:24:27.178Z,85.30
2017-12-16T00:26:55.072Z,84.90
2017-12-16T00:29:22.222Z,84.90
2017-12-16T00:31:49.350Z,85.80
2017-12-16T00:34:17.255Z,86.60
2017-12-16T00:36:44.399Z,86.60
2017-12-16T00:39:11.504Z,87.60
2017-12-16T00:41:39.409Z,88.50
2017-12-16T00:44:06.643Z,88.50
2017-12-16T00:46:34.557Z,87.70
2017-12-16T00:49:01.679Z,87.70
2017-12-16T00:51:28.829Z,86.80
2017-12-16T00:53:55.946Z,86.50
2017-12-16T00:56:23.959Z,86.80
2017-12-16T00:58:51.092Z,86.80
2017-12-16T01:01:18.249Z,87.30
2017-12-16T01:03:45.361Z,87.60
2017-12-16T01:06:13.270Z,88.70
2017-12-16T01:08:40.393Z,88.70
2017-12-16T01:11:07.659Z,89.00
2017-12-16T01:13:34.830Z,88.20
2017-12-16T01:16:01.960Z,87.60
2017-12-16T01:18:29.098Z,87.40
2017-12-16T01:20:56.229Z,87.20
2017-12-16T01:23:24.134Z,86.40
2017-12-16T01:25:51.381Z,86.40
2017-12-16T01:28:18.560Z,86.60
2017-12-16T01:30:46.467Z,87.80
2017-12-16T01:33:14.362Z,86.50
2017-12-16T01:35:47.445Z,86.50
2017-12-16T01:38:20.506Z,87.10
2017-12-16T01:40:48.390Z,87.00
2017-12-16T01:43:16.275Z,87.60
2017-12-16T01:45:43.405Z,87.50
2017-12-16T01:48:10.527Z,88.10
2017-12-16T01:50:37.665Z,89.10
2017-12-16T01:53:04.789Z,88.80
2017-12-16T01:55:31.918Z,88.40
2017-12-16T01:57:59.044Z,88.00
2017-12-16T02:00:26.958Z,87.90
2017-12-16T02:02:54.070Z,87.90
2017-12-16T02:05:21.206Z,88.60
2017-12-16T02:07:49.092Z,87.30
2017-12-16T02:10:16.261Z,87.30
2017-12-16T02:12:43.406Z,87.20
2017-12-16T02:15:10.516Z,87.60
2017-12-16T02:17:38.442Z,88.80
2017-12-16T02:20:05.553Z,88.30
2017-12-16T02:22:32.686Z,87.50
2017-12-16T02:25:00.575Z,87.70
2017-12-16T02:27:27.713Z,87.70
2017-12-16T02:29:54.866Z,87.20
2017-12-16T02:32:22.769Z,87.70
2017-12-16T02:34:49.901Z,88.10
2017-12-16T02:37:17.033Z,86.80
2017-12-16T02:39:44.159Z,88.30
2017-12-16T02:42:11.280Z,88.10
2017-12-16T02:44:38.410Z,88.70
2017-12-16T02:47:05.552Z,89.40
2017-12-16T02:49:32.707Z,88.00
2017-12-16T02:51:59.841Z,88.50
2017-12-16T02:54:26.983Z,88.70
2017-12-16T02:56:54.113Z,89.30
2017-12-16T02:59:21.995Z,89.50
2017-12-16T03:01:49.136Z,89.50
2017-12-16T03:04:16.255Z,89.60
2017-12-16T03:06:43.381Z,89.70
2017-12-16T03:09:10.501Z,88.80
2017-12-16T03:11:37.613Z,88.90
2017-12-16T03:14:05.516Z,88.00
2017-12-16T03:16:32.641Z,88.00
2017-12-16T03:19:00.557Z,87.60
2017-12-16T03:21:27.682Z,87.50
2017-12-16T03:23:54.828Z,87.70
2017-12-16T03:26:21.934Z,87.60
2017-12-16T03:28:49.077Z,87.30
2017-12-16T03:31:16.196Z,87.90
2017-12-16T03:33:43.329Z,88.70
2017-12-16T03:36:10.449Z,88.30
2017-12-16T03:38:37.573Z,87.70
2017-12-16T03:41:04.710Z,87.90
2017-12-16T03:43:31.821Z,87.10
2017-12-16T03:45:58.982Z,87.60
2017-12-16T03:48:26.110Z,87.40
2017-12-16T03:50:53.255Z,88.00
2017-12-16T03:53:21.140Z,87.80
2017-12-16T03:55:48.395Z,87.80
2017-12-16T03:58:15.548Z,87.80
2017-12-16T04:00:42.674Z,88.60
2017-12-16T04:03:10.565Z,89.50
2017-12-16T04:05:37.694Z,89.50
2017-12-16T04:08:05.704Z,89.80
2017-12-16T04:10:32.858Z,89.70
2017-12-16T04:12:59.982Z,89.80
2017-12-16T04:15:27.104Z,89.20
2017-12-16T04:17:55.019Z,88.90
2017-12-16T04:20:22.166Z,88.90
2017-12-16T04:22:50.192Z,89.90
2017-12-16T04:25:18.094Z,89.70
2017-12-16T04:27:45.240Z,89.70
2017-12-16T04:30:12.374Z,90.10
2017-12-16T04:32:39.510Z,90.20
2017-12-16T04:35:06.705Z,89.30
2017-12-16T04:37:34.605Z,88.50
2017-12-16T04:40:01.715Z,88.50
2017-12-16T04:42:28.845Z,89.00
2017-12-16T04:44:55.977Z,88.10
2017-12-16T04:47:23.877Z,89.20
2017-12-16T04:49:51.015Z,89.10
2017-12-16T04:52:18.153Z,90.10
2017-12-16T04:54:45.268Z,89.50
2017-12-16T04:57:12.379Z,89.40
2017-12-16T04:59:39.517Z,89.00
2017-12-16T05:02:06.624Z,89.30
2017-12-16T05:04:34.670Z,88.50
2017-12-16T05:07:01.789Z,88.00
2017-12-16T05:09:28.951Z,87.80
2017-12-16T05:11:56.061Z,88.60
2017-12-16T05:14:23.961Z,89.30
2017-12-16T05:16:51.076Z,89.10
2017-12-16T05:19:19.036Z,89.70
2017-12-16T05:21:46.917Z,88.60
2017-12-16T05:24:14.050Z,88.60
2017-12-16T05:26:41.929Z,89.80
2017-12-16T05:29:09.836Z,89.70
2017-12-16T05:31:36.954Z,89.70
2017-12-16T05:34:04.071Z,89.50
2017-12-16T05:36:31.215Z,90.00
2017-12-16T05:38:58.357Z,89.70
2017-12-16T05:41:25.487Z,89.50
2017-12-16T05:43:52.600Z,89.90
2017-12-16T05:46:19.741Z,90.30
2017-12-16T05:48:47.649Z,90.90
2017-12-16T05:51:14.782Z,90.80
2017-12-16T05:53:41.932Z,91.10
2017-12-16T05:56:09.070Z,90.90
2017-12-16T05:58:36.183Z,90.80
2017-12-16T06:01:03.317Z,90.50
2017-12-16T06:03:30.465Z,90.40
2017-12-16T06:05:57.658Z,90.70
2017-12-16T06:08:24.786Z,90.40
2017-12-16T06:10:52.672Z,90.70
2017-12-16T06:13:19.808Z,90.40
2017-12-16T06:15:47.700Z,90.50
2017-12-16T06:18:14.908Z,90.40
2017-12-16T06:20:42.136Z,90.00
2017-12-16T06:23:09.272Z,90.20
2017-12-16T06:25:36.405Z,90.40
2017-12-16T06:28:03.539Z,90.20
2017-12-16T06:30:31.417Z,90.30
2017-12-16T06:32:58.694Z,90.30
2017-12-16T06:35:25.830Z,90.30
2017-12-16T06:37:52.964Z,90.60
2017-12-16T06:40:20.083Z,90.50
2017-12-16T06:42:47.221Z,90.30
2017-12-16T06:45:14.362Z,90.10
2017-12-16T06:47:41.461Z,89.90
2017-12-16T06:50:08.618Z,90.30
2017-12-16T06:52:35.729Z,90.20
2017-12-16T06:55:03.008Z,90.10
2017-12-16T06:57:30.881Z,89.90
2017-12-16T06:59:58.086Z,89.80
2017-12-16T07:02:25.214Z,90.30
2017-12-16T07:04:52.648Z,90.20
2017-12-16T07:07:19.766Z,90.10
2017-12-16T07:09:47.665Z,90.40
2017-12-16T07:12:14.854Z,90.40
2017-12-16T07:14:42.105Z,90.50
2017-12-16T07:17:09.251Z,90.40
2017-12-16T07:19:36.409Z,90.50
2017-12-16T07:22:03.761Z,90.50
2017-12-16T07:24:30.872Z,90.50
2017-12-16T07:26:58.001Z,90.80
2017-12-16T07:29:25.136Z,90.80
2017-12-16T07:31:53.045Z,90.60
2017-12-16T07:34:20.170Z,90.50
2017-12-16T07:36:47.314Z,90.70
2017-12-16T07:39:14.433Z,91.30
2017-12-16T07:41:41.608Z,91.20
2017-12-16T07:44:09.509Z,90.70
2017-12-16T07:46:36.657Z,90.70
2017-12-16T07:49:03.791Z,91.10
2017-12-16T07:51:30.951Z,91.50
2017-12-16T07:53:58.078Z,91.80
2017-12-16T07:56:25.993Z,91.60
2017-12-16T07:58:53.118Z,91.60
2017-12-16T08:01:20.289Z,91.30
2017-12-16T08:03:47.417Z,91.10
2017-12-16T08:06:14.561Z,91.40
2017-12-16T08:08:41.685Z,91.30
2017-12-16T08:11:09.584Z,91.20
2017-12-16T08:13:36.772Z,91.20
2017-12-16T08:16:03.909Z,91.40
2017-12-16T08:18:31.052Z,91.20
2017-12-16T08:20:58.179Z,91.20
2017-12-16T08:23:25.317Z,91.60
2017-12-16T08:25:52.457Z,91.20
2017-12-16T08:28:19.612Z,91.50
2017-12-16T08:30:46.780Z,90.90
2017-12-16T08:33:13.928Z,90.70
2017-12-16T08:35:41.060Z,90.60
2017-12-16T08:38:08.237Z,90.70
2017-12-16T08:42:57.289Z,90.70
2017-12-16T08:45:24.454Z,90.70
2017-12-16T08:47:51.674Z,90.30
2017-12-16T08:50:20.161Z,90.80
2017-12-16T08:52:48.081Z,90.90
2017-12-16T08:55:15.274Z,90.90
2017-12-16T08:57:43.190Z,90.90
2017-12-16T09:00:10.325Z,90.90
2017-12-16T09:02:37.480Z,91.20
2017-12-16T09:05:04.643Z,91.00
2017-12-16T09:07:31.775Z,91.20
2017-12-16T09:09:59.036Z,91.30
2017-12-16T09:12:26.239Z,91.30
2017-12-16T09:14:53.367Z,91.70
2017-12-16T09:17:20.505Z,91.70
2017-12-16T09:19:47.680Z,91.50
2017-12-16T09:22:14.816Z,91.40
2017-12-16T09:24:41.933Z,91.40
2017-12-16T09:27:09.076Z,91.60
2017-12-16T09:29:36.198Z,91.60
2017-12-16T09:32:04.103Z,91.80
2017-12-16T09:34:31.234Z,91.80
2017-12-16T09:36:58.377Z,91.90
2017-12-16T09:39:25.503Z,92.00
2017-12-16T09:41:53.418Z,91.50
2017-12-16T09:44:20.572Z,91.50
2017-12-16T09:46:47.700Z,92.00
2017-12-16T09:49:14.843Z,91.50
2017-12-16T09:53:05.571Z,91.90
2017-12-16T09:55:32.721Z,91.80
2017-12-16T09:57:59.847Z,91.90
2017-12-16T10:00:27.014Z,92.00
2017-12-16T10:02:54.165Z,92.00
2017-12-16T10:05:21.502Z,91.90
2017-12-16T10:07:48.633Z,91.50
2017-12-16T10:10:16.531Z,91.60
2017-12-16T10:12:43.640Z,91.60
2017-12-16T10:15:10.808Z,91.90
2017-12-16T10:17:38.709Z,92.20
2017-12-16T10:20:06.598Z,92.60
2017-12-16T10:22:33.733Z,92.60
2017-12-16T10:25:00.862Z,92.60
2017-12-16T10:27:28.025Z,92.70
2017-12-16T10:29:55.260Z,92.70
2017-12-16T10:32:22.398Z,92.70
2017-12-16T10:34:49.565Z,92.60
2017-12-16T10:37:16.751Z,93.00
2017-12-16T10:39:43.881Z,92.60
2017-12-16T10:42:11.025Z,93.20
2017-12-16T10:44:38.910Z,93.20
2017-12-16T10:47:06.040Z,93.10
2017-12-16T10:49:33.158Z,92.30
2017-12-16T10:52:01.055Z,91.60
2017-12-16T10:54:28.202Z,91.60
2017-12-16T10:56:55.357Z,92.30
2017-12-16T10:59:22.525Z,92.40
2017-12-16T11:01:49.652Z,92.10
2017-12-16T11:04:16.793Z,92.10
2017-12-16T11:06:43.913Z,91.90
2017-12-16T11:09:11.921Z,90.80
2017-12-16T11:11:39.055Z,90.70
2017-12-16T11:14:06.256Z,91.40
2017-12-16T11:16:33.376Z,91.30
2017-12-16T11:19:00.502Z,91.50
2017-12-16T11:21:27.653Z,90.40
2017-12-16T11:23:54.797Z,91.00
2017-12-16T11:26:21.946Z,90.60
2017-12-16T11:28:49.089Z,90.10
2017-12-16T11:31:16.266Z,90.00
2017-12-16T11:33:43.380Z,90.00
2017-12-16T11:36:11.256Z,90.10
2017-12-16T11:38:39.150Z,90.50
2017-12-16T11:41:06.339Z,90.50
2017-12-16T11:43:33.493Z,91.00
2017-12-16T11:46:00.709Z,90.40
2017-12-16T11:48:27.898Z,90.80
2017-12-16T11:50:55.024Z,90.30
2017-12-16T11:53:22.144Z,90.30
2017-12-16T11:55:49.297Z,91.00
2017-12-16T11:58:16.429Z,90.50
2017-12-16T12:00:43.575Z,90.00
2017-12-16T12:03:10.698Z,90.50
2017-12-16T12:05:37.820Z,90.70
2017-12-16T12:08:04.933Z,90.00
2017-12-16T12:10:32.112Z,90.30
2017-12-16T12:12:59.240Z,89.90
2017-12-16T12:15:26.359Z,90.10
2017-12-16T12:17:55.178Z,90.50
2017-12-16T12:20:22.299Z,90.40
2017-12-16T12:22:50.234Z,90.10
2017-12-16T12:25:17.373Z,90.10
2017-12-16T12:27:44.520Z,89.60
2017-12-16T12:30:11.648Z,90.00
2017-12-16T12:32:43.604Z,88.00
2017-12-16T12:35:10.794Z,89.30
2017-12-16T12:37:37.937Z,87.60
2017-12-16T12:40:05.082Z,88.40
2017-12-16T12:42:32.229Z,86.30
2017-12-16T12:44:59.349Z,87.00
2017-12-16T12:47:26.514Z,87.80
2017-12-16T12:49:53.702Z,85.70
2017-12-16T12:52:20.822Z,84.00
2017-12-16T12:54:47.966Z,85.10
2017-12-16T12:57:15.079Z,84.10
2017-12-16T12:59:42.978Z,84.00
2017-12-16T13:02:10.114Z,84.00
2017-12-16T13:04:37.279Z,83.50
2017-12-16T13:07:04.410Z,83.10
2017-12-16T13:09:31.595Z,82.60
2017-12-16T13:11:58.728Z,82.00
2017-12-16T13:14:25.877Z,82.80
2017-12-16T13:16:53.001Z,84.20
2017-12-16T13:19:20.143Z,84.50
2017-12-16T13:21:47.311Z,82.30
2017-12-16T13:24:14.457Z,82.20
2017-12-16T13:26:41.585Z,82.20
2017-12-16T13:29:09.474Z,82.80
2017-12-16T13:31:36.626Z,82.90
2017-12-16T13:34:03.809Z,83.30
2017-12-16T13:36:31.038Z,83.30
2017-12-16T13:38:58.170Z,81.20
2017-12-16T13:41:25.346Z,81.90
2017-12-16T13:43:52.714Z,82.20
2017-12-16T13:46:19.985Z,82.90
2017-12-16T13:48:47.121Z,82.30
2017-12-16T13:51:14.606Z,82.00
2017-12-16T13:53:41.733Z,81.70
2017-12-16T13:56:09.037Z,81.90
2017-12-16T13:58:36.162Z,81.00
2017-12-16T14:01:04.129Z,82.20
2017-12-16T14:03:32.045Z,82.70
2017-12-16T14:05:59.197Z,82.70
2017-12-16T14:08:26.369Z,81.10
2017-12-16T14:10:53.561Z,82.30
2017-12-16T14:13:21.468Z,82.60
2017-12-16T14:15:48.598Z,82.70
2017-12-16T14:18:15.731Z,81.40
2017-12-16T14:20:43.757Z,83.30
2017-12-16T14:23:10.892Z,83.30
2017-12-16T14:25:38.057Z,82.40
2017-12-16T14:28:05.196Z,82.50
2017-12-16T14:30:32.342Z,82.20
2017-12-16T14:32:59.479Z,82.30
2017-12-16T14:35:26.606Z,83.00
2017-12-16T14:37:53.774Z,84.40
2017-12-16T14:40:20.888Z,84.70
2017-12-16T14:42:48.801Z,84.10
2017-12-16T14:45:15.916Z,84.00
2017-12-16T14:47:43.061Z,83.70
2017-12-16T14:50:10.182Z,84.30
2017-12-16T14:52:37.308Z,84.80
2017-12-16T14:55:04.422Z,84.00
2017-12-16T14:57:31.560Z,84.00
2017-12-16T14:59:58.693Z,84.40
2017-12-16T15:02:26.575Z,84.10
2017-12-16T15:04:54.497Z,84.10
2017-12-16T15:07:21.643Z,84.10
2017-12-16T15:09:48.784Z,84.50
2017-12-16T15:12:15.918Z,85.30
2017-12-16T15:14:43.050Z,84.70
2017-12-16T15:17:10.168Z,84.90
2017-12-16T15:19:37.309Z,84.30
2017-12-16T15:22:04.444Z,85.30
2017-12-16T15:24:31.611Z,85.20
2017-12-16T15:26:58.760Z,85.80
2017-12-16T15:29:25.904Z,85.90
2017-12-16T15:31:53.039Z,85.30
2017-12-16T15:34:20.159Z,85.10
2017-12-16T15:36:47.309Z,85.40
2017-12-16T15:39:14.484Z,86.00
2017-12-16T15:41:41.738Z,85.80
2017-12-16T15:44:08.945Z,86.90
2017-12-16T15:46:36.078Z,86.60
2017-12-16T15:49:03.988Z,85.90
2017-12-16T15:51:31.145Z,85.70
2017-12-16T15:53:58.277Z,87.80
2017-12-16T15:56:25.424Z,86.70
2017-12-16T15:58:52.541Z,86.60
2017-12-16T16:01:20.458Z,88.60
2017-12-16T16:03:47.604Z,88.40
2017-12-16T16:06:14.729Z,88.60
2017-12-16T16:08:41.875Z,89.00
2017-12-16T16:11:09.049Z,90.00
2017-12-16T16:13:36.241Z,89.20
2017-12-16T16:16:03.392Z,89.00
2017-12-16T16:18:30.550Z,89.20
2017-12-16T16:20:57.681Z,89.30
2017-12-16T16:23:24.835Z,89.60
2017-12-16T16:25:51.979Z,89.20
2017-12-16T16:28:19.129Z,89.20
2017-12-16T16:30:46.314Z,89.50
2017-12-16T16:33:14.205Z,89.50
2017-12-16T16:35:41.357Z,89.50
2017-12-16T16:38:08.477Z,89.30
2017-12-16T16:40:36.378Z,88.10
2017-12-16T16:43:03.510Z,88.10
2017-12-16T16:45:30.657Z,88.90
2017-12-16T16:47:57.785Z,88.10
2017-12-16T16:50:25.762Z,88.50
2017-12-16T16:52:53.650Z,88.80
2017-12-16T16:55:20.795Z,88.80
2017-12-16T16:57:47.915Z,88.70
2017-12-16T17:00:15.828Z,88.50
2017-12-16T17:02:42.953Z,88.50
2017-12-16T17:05:10.099Z,88.40
2017-12-16T17:07:38.022Z,87.90
2017-12-16T17:10:05.162Z,87.90
2017-12-16T17:12:32.334Z,87.70
2017-12-16T17:14:59.464Z,88.00
2017-12-16T17:17:26.577Z,88.20
2017-12-16T17:19:53.700Z,88.30
2017-12-16T17:22:21.674Z,87.60
2017-12-16T17:24:49.599Z,86.40
2017-12-16T17:27:16.746Z,86.40
2017-12-16T17:29:43.880Z,86.40
2017-12-16T17:32:11.025Z,87.60
2017-12-16T17:34:38.150Z,87.10
2017-12-16T17:37:06.057Z,85.90
2017-12-16T17:39:33.941Z,86.40
2017-12-16T17:42:01.069Z,86.30
2017-12-16T17:44:28.208Z,87.30
2017-12-16T17:46:55.381Z,86.90
2017-12-16T17:49:22.497Z,86.70
2017-12-16T17:51:49.641Z,85.70
2017-12-16T17:54:16.755Z,85.90
2017-12-16T17:56:43.876Z,86.20
2017-12-16T17:59:11.030Z,85.60
2017-12-16T18:01:38.214Z,85.50
2017-12-16T18:04:06.124Z,85.90
2017-12-16T18:06:33.231Z,85.90
2017-12-16T18:09:01.143Z,86.10
2017-12-16T18:11:28.282Z,86.10
2017-12-16T18:13:55.434Z,85.90
2017-12-16T18:16:22.559Z,85.10
2017-12-16T18:18:50.521Z,84.80
2017-12-16T18:21:18.413Z,85.30
2017-12-16T18:23:45.568Z,85.30
2017-12-16T18:26:12.692Z,86.00
2017-12-16T18:28:39.851Z,85.90
2017-12-16T18:31:06.985Z,86.40
2017-12-16T18:33:34.940Z,87.00
2017-12-16T18:36:02.037Z,86.90
2017-12-16T18:38:29.171Z,86.60
2017-12-16T18:40:56.348Z,86.60
2017-12-16T18:43:23.479Z,86.70
2017-12-16T18:45:50.618Z,87.40
2017-12-16T18:48:17.774Z,87.60
2017-12-16T18:50:44.945Z,88.00
2017-12-16T18:53:12.081Z,88.10
2017-12-16T18:55:39.237Z,88.50
2017-12-16T18:58:06.393Z,89.40
2017-12-16T19:00:33.532Z,89.00
2017-12-16T19:03:00.797Z,89.50
2017-12-16T19:05:27.928Z,90.60
2017-12-16T19:07:55.064Z,90.20
2017-12-16T19:10:22.190Z,90.20
2017-12-16T19:12:49.331Z,90.10
2017-12-16T19:15:16.447Z,90.20
2017-12-16T19:17:43.601Z,90.30
2017-12-16T19:20:10.716Z,90.10
2017-12-16T19:22:37.844Z,90.60
2017-12-16T19:25:05.781Z,90.50
2017-12-16T19:27:32.894Z,90.50
2017-12-16T19:30:00.039Z,90.30
2017-12-16T19:32:27.186Z,90.60
2017-12-16T19:34:54.363Z,90.20
2017-12-16T19:37:21.615Z,90.30
2017-12-16T19:39:48.743Z,90.60
2017-12-16T19:42:15.884Z,90.60
2017-12-16T19:44:42.989Z,90.60
2017-12-16T19:47:10.133Z,90.70
2017-12-16T19:49:37.258Z,90.00
2017-12-16T19:52:04.409Z,90.20
2017-12-16T19:54:31.538Z,90.00
2017-12-16T19:56:58.723Z,89.60
2017-12-16T19:59:25.882Z,89.20
2017-12-16T20:01:53.012Z,88.90
2017-12-16T20:04:20.274Z,89.60
2017-12-16T20:06:49.346Z,88.70
2017-12-16T20:09:16.483Z,88.50
2017-12-16T20:11:43.629Z,89.50
2017-12-16T20:14:10.750Z,88.90
2017-12-16T20:16:38.657Z,89.00
2017-12-16T20:19:05.776Z,89.00
2017-12-16T20:21:33.713Z,88.50
2017-12-16T20:24:00.890Z,88.40
2017-12-16T20:26:28.826Z,88.40
2017-12-16T20:28:55.968Z,88.40
2017-12-16T20:31:23.121Z,88.40
2017-12-16T20:33:50.260Z,87.80
2017-12-16T20:36:17.371Z,87.40
2017-12-16T20:38:44.512Z,87.60
2017-12-16T20:41:11.636Z,87.90
2017-12-16T20:43:38.863Z,87.80
2017-12-16T20:46:06.083Z,87.40
2017-12-16T20:48:33.217Z,88.50
2017-12-16T20:51:00.374Z,89.10
2017-12-16T20:53:27.513Z,89.80
2017-12-16T20:55:55.418Z,90.10
2017-12-16T20:58:22.545Z,90.10
2017-12-16T21:00:49.696Z,90.00
2017-12-16T21:03:16.850Z,89.30
2017-12-16T21:05:44.020Z,89.70
2017-12-16T21:08:11.138Z,88.90
2017-12-16T21:10:38.272Z,89.30
2017-12-16T21:13:06.169Z,89.50
2017-12-16T21:15:34.070Z,89.20
2017-12-16T21:18:01.213Z,89.20
2017-12-16T21:20:28.342Z,89.00
2017-12-16T21:22:55.478Z,88.80
2017-12-16T21:25:22.594Z,89.50
2017-12-16T21:27:50.558Z,89.10
2017-12-16T21:30:17.690Z,89.10
2017-12-16T21:32:44.829Z,89.50
2017-12-16T21:35:11.997Z,89.20
2017-12-16T21:37:39.166Z,89.50
2017-12-16T21:40:07.065Z,90.00
2017-12-16T21:42:34.307Z,90.00
2017-12-16T21:45:01.579Z,89.50
2017-12-16T21:47:28.710Z,89.50
2017-12-16T21:49:55.854Z,89.90
2017-12-16T21:52:22.996Z,88.40
2017-12-16T21:54:50.903Z,88.50
2017-12-16T21:57:18.035Z,88.30
2017-12-16T21:59:45.181Z,89.00
2017-12-16T22:02:12.319Z,89.50
2017-12-16T22:04:39.457Z,90.20
2017-12-16T22:07:07.357Z,90.40
2017-12-16T22:09:34.498Z,90.30
2017-12-16T22:12:01.650Z,90.90
2017-12-16T22:14:28.849Z,91.40
2017-12-16T22:16:56.009Z,92.00
2017-12-16T22:19:23.186Z,92.00
2017-12-16T22:21:50.330Z,92.40
2017-12-16T22:24:18.221Z,92.00
2017-12-16T22:26:45.361Z,92.30
2017-12-16T22:29:12.481Z,91.40
2017-12-16T22:31:40.388Z,91.70
2017-12-16T22:34:07.515Z,91.40
2017-12-16T22:36:35.410Z,91.40
2017-12-16T22:39:02.537Z,91.40
2017-12-16T22:41:29.694Z,91.40
2017-12-16T22:43:56.851Z,91.30
2017-12-16T22:46:23.995Z,91.00
2017-12-16T22:48:51.249Z,90.70
2017-12-16T22:51:18.418Z,90.80
2017-12-16T22:53:45.546Z,90.90
2017-12-16T22:56:12.674Z,90.70
2017-12-16T22:58:40.618Z,90.50
2017-12-16T23:01:07.763Z,90.20
2017-12-16T23:03:34.889Z,90.70
2017-12-16T23:06:02.034Z,90.40
2017-12-16T23:08:29.913Z,89.60
2017-12-16T23:10:57.051Z,89.50
2017-12-16T23:13:24.262Z,89.10
2017-12-16T23:15:52.148Z,90.10
2017-12-16T23:18:19.293Z,90.10
2017-12-16T23:20:46.433Z,90.30
2017-12-16T23:23:13.569Z,90.00
2017-12-16T23:25:41.479Z,90.20
2017-12-16T23:28:08.616Z,90.20
2017-12-16T23:30:35.741Z,90.00
2017-12-16T23:33:03.620Z,89.80
2017-12-16T23:35:30.757Z,89.60
2017-12-16T23:37:58.661Z,90.20
2017-12-16T23:40:25.787Z,90.20
2017-12-16T23:42:52.926Z,90.10
2017-12-16T23:45:20.086Z,89.30
2017-12-16T23:47:47.213Z,89.10
2017-12-16T23:50:15.172Z,88.80
2017-12-16T23:52:43.093Z,89.70
2017-12-16T23:55:10.237Z,89.10
2017-12-16T23:57:37.339Z,90.10
